Time;durP1;ratioP1;P1;durP2;ratioP2;P2;SDS_P1;SDS_P2;PMS_P1;PMS_P2;Temp;Humidity;BMP_temperature;BMP_pressure;BME280_temperature;BME280_humidity;BME280_pressure;Samples;Min_cycle;Max_cycle;Signal;HPM_P1;HPM_P2
2022/04/09 00:00:21;;;;;;;;;;;;;;;14.64;60.00;98031.41;4441982;32;20011;-93
2022/04/09 00:03:22;;;;;;;;;;;;;;;;;;;;;
2022/04/09 00:05:47;;;;;;;;;;;;;;;14.74;60.00;98016.69;4442896;32;35941;-93
2022/04/09 00:08:13;;;;;;;;;;;;;;;14.73;60.01;98010.59;4442646;32;20008;-93
2022/04/09 00:10:38;;;;;;;;;;;;;;;14.69;60.00;98003.94;4415966;32;20430;-92
2022/04/09 00:13:03;;;;;;;;;;;;;;;14.62;59.99;97999.28;4441158;32;19998;-93
2022/04/09 00:15:29;;;;;;;;;;;;;;;14.83;60.01;97994.19;4441254;32;20003;-93
2022/04/09 00:17:54;;;;;;;;;;;;;;;14.68;60.00;97996.22;4440789;32;19989;-93
2022/04/09 00:20:19;;;;;;;;;;;;;;;14.49;59.99;97985.47;4440625;32;19989;-93
2022/04/09 00:22:45;;;;;;;;;;;;;;;14.60;59.99;97985.47;4427777;32;20314;-94
2022/04/09 00:25:11;;;;;;;;;;;;;;;14.78;60.01;97965.72;4428276;32;20274;-94
2022/04/09 00:27:39;;;;;;;;;;;;;;;14.61;59.99;97969.62;4416161;32;20007;-95
2022/04/09 00:30:29;;;;;;;;;;;;;;;;;;;;;
2022/04/09 00:33:01;;;;;;;;;;;;;;;14.73;60.00;97968.72;4436367;32;36845;-96
2022/04/09 00:35:37;;;;;;;;;;;;;;;14.89;60.01;97960.47;4416013;32;19958;-95
2022/04/09 00:38:08;;;;;;;;;;;;;;;14.74;60.00;97951.19;4444295;32;19990;-96
2022/04/09 00:40:38;;;;;;;;;;;;;;;14.89;60.01;97949.16;4414444;32;20049;-96
2022/04/09 00:47:08;;;;;;;;;;;;;;;;;;;;;
2022/04/09 00:52:46;;;;;;;;;;;;;;;14.69;59.99;97963.81;4395881;32;19989;-96
2022/04/09 00:55:14;;;;;;;;;;;;;;;14.70;60.00;97976.81;4370909;32;19955;-96
2022/04/09 00:57:40;;;;;;;;;;;;;;;14.64;60.00;97999.97;4398646;32;19995;-95
2022/04/09 01:00:09;;;;;;;;;;;;;;;14.47;60.00;97993.44;4416829;32;20389;-96
2022/04/09 01:02:39;;;;;;;;;;;;;;;14.47;59.98;98000.44;4417382;32;19997;-96
2022/04/09 01:05:25;;;;;;;;;;;;;;;14.49;59.99;98020.34;4417312;32;20722;-95
2022/04/09 01:13:32;;;;;;;;;;;;;;;14.37;59.98;97974.91;4422293;32;19981;-92
2022/04/09 01:15:58;;;;;;;;;;;;;;;14.53;59.99;97952.84;4415195;32;20276;-93
2022/04/09 01:18:23;;;;;;;;;;;;;;;14.55;60.00;97956.19;4427578;32;19970;-91
2022/04/09 01:20:48;;;;;;;;;;;;;;;14.42;59.99;97974.56;4427317;32;20032;-91
2022/04/09 01:23:13;;;;;;;;;;;;;;;14.49;59.99;97954.88;4440224;32;20051;-92
2022/04/09 01:25:39;;;;;;;;;;;;;;;14.61;59.99;97948.69;4440098;32;20041;-92
2022/04/09 01:28:04;;;;;;;;;;;;;;;14.78;60.00;97954.41;4414533;32;19978;-93
2022/04/09 01:30:48;;;;;;;;;;;;;;;14.74;60.00;97967.75;4440283;32;19998;-92
2022/04/09 01:33:16;;;;;;;;;;;;;;;14.73;60.00;97986.22;4415205;32;20372;-93
2022/04/09 01:35:42;;;;;;;;;;;;;;;14.77;60.00;97992.88;4415133;32;20613;-94
2022/04/09 01:38:07;;;;;;;;;;;;;;;14.64;60.00;98003.44;4440427;32;20039;-93
2022/04/09 01:40:32;;;;;;;;;;;;;;;14.67;60.00;98002.41;4440444;32;20025;-92
2022/04/09 01:43:00;;;;;;;;;;;;;;;14.77;60.00;97994.66;4440557;32;20030;-93
2022/04/09 01:45:27;;;;;;;;;;;;;;;14.85;60.00;97994.88;4415580;32;19995;-95
2022/04/09 01:47:53;;;;;;;;;;;;;;;14.75;60.00;97997.41;4441782;32;19964;-95
2022/04/09 01:50:18;;;;;;;;;;;;;;;14.71;60.00;98006.44;4442821;32;20091;-96
2022/04/09 01:52:44;;;;;;;;;;;;;;;14.68;60.00;98004.06;4442907;32;19996;-95
2022/04/09 01:55:09;;;;;;;;;;;;;;;14.71;60.00;97999.41;4442069;32;19986;-95
2022/04/09 01:57:46;;;;;;;;;;;;;;;14.59;59.99;97979.41;4427590;32;20058;-92
2022/04/09 02:53:28;;;;;;;;;;;;;;;14.28;59.98;98007.03;4456379;32;19973;-96
2022/04/09 02:55:54;;;;;;;;;;;;;;;14.29;59.98;98000.84;4430555;32;19985;-95
2022/04/09 02:58:19;;;;;;;;;;;;;;;14.28;59.98;98000.97;4430342;32;19987;-94
2022/04/09 03:00:44;;;;;;;;;;;;;;;14.30;59.97;97997.28;4443717;32;20016;-94
2022/04/09 03:03:12;;;;;;;;;;;;;;;14.33;59.98;98004.91;4433990;32;20008;-96
2022/04/09 03:05:43;;;;;;;;;;;;;;;14.40;59.98;98008.72;4432282;32;20062;-94
2022/04/09 03:08:08;;;;;;;;;;;;;;;14.35;59.98;98010.84;4458241;32;19977;-93
2022/04/09 03:10:34;;;;;;;;;;;;;;;14.19;59.97;98009.47;4429609;32;19995;-94
2022/04/09 03:13:33;;;;;;;;;;;;;;;14.34;59.98;98005.72;4430289;32;19985;-96
2022/04/09 03:16:17;;;;;;;;;;;;;;;;;;;;;
2022/04/09 03:21:48;;;;;;;;;;;;;;;14.43;59.98;98016.41;4456901;32;19992;-93
2022/04/09 03:27:24;;;;;;;;;;;;;;;14.38;59.98;98028.94;4448152;32;20757;-94
2022/04/09 03:29:49;;;;;;;;;;;;;;;14.41;59.98;98013.00;4430551;32;19945;-94
2022/04/09 03:32:17;;;;;;;;;;;;;;;14.37;59.97;98015.97;4429873;32;19965;-93
2022/04/09 03:34:43;;;;;;;;;;;;;;;14.36;59.98;98009.91;4430039;32;20011;-94
2022/04/09 03:37:08;;;;;;;;;;;;;;;14.34;59.98;98006.56;4429374;32;19993;-91
2022/04/09 03:39:33;;;;;;;;;;;;;;;14.27;59.97;98001.91;4441599;32;19993;-92
2022/04/09 03:41:58;;;;;;;;;;;;;;;14.09;59.96;97991.03;4428101;32;19977;-92
2022/04/09 03:44:24;;;;;;;;;;;;;;;14.13;59.96;98001.16;4428175;32;20364;-90
2022/04/09 03:46:49;;;;;;;;;;;;;;;14.10;59.97;98021.47;4440728;32;20003;-91
2022/04/09 03:49:15;;;;;;;;;;;;;;;14.32;59.97;98016.31;4428248;32;20273;-92
2022/04/09 03:51:40;;;;;;;;;;;;;;;14.02;59.95;98002.91;4427984;32;19985;-93
2022/04/09 03:54:06;;;;;;;;;;;;;;;13.96;59.96;98004.19;4427974;32;19985;-92
2022/04/09 03:56:31;;;;;;;;;;;;;;;14.00;59.95;97997.78;4428385;32;20692;-93
2022/04/09 03:58:56;;;;;;;;;;;;;;;13.89;59.95;98005.56;4428904;32;20018;-91
2022/04/09 04:01:24;;;;;;;;;;;;;;;13.89;59.95;98000.34;4428484;32;20022;-92
2022/04/09 04:03:50;;;;;;;;;;;;;;;13.99;59.95;97992.66;4428594;32;20004;-92
2022/04/09 04:06:15;;;;;;;;;;;;;;;13.95;59.96;97999.03;4428621;32;19993;-90
2022/04/09 04:08:40;;;;;;;;;;;;;;;13.82;59.95;97996.50;4427829;32;20008;-94
2022/04/09 04:11:06;;;;;;;;;;;;;;;13.81;59.95;97989.63;4428877;32;20004;-94
2022/04/09 04:13:33;;;;;;;;;;;;;;;13.91;59.95;97979.31;4428674;32;20324;-92
2022/04/09 04:15:59;;;;;;;;;;;;;;;13.73;59.94;97976.28;4428899;32;20001;-92
2022/04/09 04:18:24;;;;;;;;;;;;;;;13.70;59.94;97990.38;4428155;32;19954;-93
2022/04/09 04:20:49;;;;;;;;;;;;;;;13.62;59.93;97981.44;4428384;32;19980;-92
2022/04/09 04:23:15;;;;;;;;;;;;;;;13.63;59.93;97976.09;4430838;32;20036;-94
2022/04/09 04:25:40;;;;;;;;;;;;;;;13.72;59.95;97971.97;4430122;32;20285;-94
2022/04/09 04:28:05;;;;;;;;;;;;;;;13.68;59.94;97966.13;4431011;32;20316;-92
2022/04/09 04:30:31;;;;;;;;;;;;;;;13.73;59.94;97957.97;4443964;32;19973;-95
2022/04/09 04:32:56;;;;;;;;;;;;;;;13.70;59.94;97959.00;4431904;32;20018;-95
2022/04/09 04:35:21;;;;;;;;;;;;;;;13.68;59.94;97965.28;4431841;32;20291;-95
2022/04/09 04:37:47;;;;;;;;;;;;;;;13.76;59.94;97961.19;4432572;32;19973;-96
2022/04/09 04:40:12;;;;;;;;;;;;;;;13.73;59.94;97965.81;4434005;32;19985;-96
2022/04/09 04:42:38;;;;;;;;;;;;;;;13.65;59.94;97949.84;4433649;32;19985;-96
2022/04/09 04:45:04;;;;;;;;;;;;;;;13.76;59.94;97940.28;4446435;32;20008;-95
2022/04/09 04:47:37;;;;;;;;;;;;;;;13.86;59.94;97936.97;4432632;32;19969;-96
2022/04/09 04:50:04;;;;;;;;;;;;;;;13.86;59.94;97929.13;4434852;32;19976;-96
2022/04/09 04:52:29;;;;;;;;;;;;;;;13.69;59.94;97918.13;4446962;32;19993;-93
2022/04/09 04:54:54;;;;;;;;;;;;;;;13.63;59.93;97910.72;4414070;32;19990;-96
2022/04/09 05:00:27;;;;;;;;;;;;;;;13.60;59.93;97884.81;4433335;32;20001;-95
2022/04/09 05:02:53;;;;;;;;;;;;;;;13.37;59.92;97873.44;4428241;32;20013;-95
2022/04/09 05:05:20;;;;;;;;;;;;;;;13.53;59.93;97870.53;4430276;32;20377;-96
2022/04/09 05:07:46;;;;;;;;;;;;;;;13.52;59.93;97876.72;4504511;26;19992;-96
2022/04/09 05:10:14;;;;;;;;;;;;;;;13.54;59.93;97880.06;4581529;26;19966;-93
2022/04/09 05:12:39;;;;;;;;;;;;;;;13.48;59.92;97864.78;4442723;32;20542;-94
2022/04/09 05:15:04;;;;;;;;;;;;;;;13.44;59.93;97863.38;4444603;32;20027;-92
2022/04/09 05:17:30;;;;;;;;;;;;;;;13.48;59.92;97870.03;4442391;32;20404;-93
2022/04/09 05:19:55;;;;;;;;;;;;;;;13.46;59.93;97866.69;4441892;32;20015;-93
2022/04/09 05:22:20;;;;;;;;;;;;;;;13.45;59.92;97862.41;4441433;32;20007;-96
2022/04/09 05:24:53;;;;;;;;;;;;;;;13.38;59.92;97863.81;4441087;32;20001;-95
2022/04/09 05:27:18;;;;;;;;;;;;;;;13.30;59.92;97860.94;4441407;32;19985;-95
2022/04/09 05:29:46;;;;;;;;;;;;;;;13.48;59.92;97865.63;4441718;32;19977;-94
2022/04/09 05:32:12;;;;;;;;;;;;;;;13.53;59.93;97878.38;4442261;32;20025;-93
2022/04/09 05:34:37;;;;;;;;;;;;;;;13.40;59.92;97877.59;4440979;32;20004;-94
2022/04/09 05:37:07;;;;;;;;;;;;;;;13.44;59.92;97884.28;4441507;32;19977;-95
2022/04/09 05:39:32;;;;;;;;;;;;;;;13.23;59.91;97870.16;4428376;32;20627;-94
2022/04/09 05:41:57;;;;;;;;;;;;;;;13.12;59.91;97873.53;4428233;32;19981;-94
2022/04/09 05:44:23;;;;;;;;;;;;;;;13.19;59.92;97885.22;4428142;32;20043;-94
2022/04/09 05:46:48;;;;;;;;;;;;;;;13.42;59.93;97894.00;4427936;32;20007;-93
2022/04/09 05:49:13;;;;;;;;;;;;;;;13.26;59.92;97896.91;4440732;32;19977;-93
2022/04/09 05:51:39;;;;;;;;;;;;;;;13.27;59.92;97910.81;4427660;32;20004;-96
2022/04/09 05:54:04;;;;;;;;;;;;;;;13.27;59.92;97911.66;4428232;32;20283;-93
2022/04/09 05:56:29;;;;;;;;;;;;;;;13.18;59.90;97918.34;4422428;32;19992;-91
2022/04/09 05:58:57;;;;;;;;;;;;;;;13.18;59.91;97925.34;4424006;32;19986;-92
2022/04/09 06:01:23;;;;;;;;;;;;;;;13.11;59.90;97918.88;4415881;32;20010;-91
2022/04/09 06:03:49;;;;;;;;;;;;;;;13.18;59.91;97909.69;4425285;32;19997;-91
2022/04/09 06:06:14;;;;;;;;;;;;;;;13.16;59.91;97922.00;4429307;32;20026;-91
2022/04/09 06:08:39;;;;;;;;;;;;;;;13.25;59.91;97904.84;4424792;32;20311;-89
2022/04/09 06:11:05;;;;;;;;;;;;;;;13.19;59.92;97921.78;4426907;32;20004;-92
2022/04/09 06:13:30;;;;;;;;;;;;;;;13.25;59.91;97917.91;4429760;32;20021;-88
2022/04/09 06:16:05;;;;;;;;;;;;;;;13.25;59.91;97915.28;4440682;32;20052;-95
2022/04/09 06:18:35;;;;;;;;;;;;;;;13.30;59.92;97941.94;4419816;32;19965;-93
2022/04/09 06:21:33;;;;;;;;;;;;;;;13.24;59.91;97932.75;4414918;32;20008;-95
2022/04/09 06:24:10;;;;;;;;;;;;;;;13.27;59.92;97905.59;4428478;32;19981;-95
2022/04/09 06:26:47;;;;;;;;;;;;;;;13.51;59.93;97922.09;4428326;32;19970;-95
2022/04/09 06:51:13;;;;;;;;;;;;;;;;;;;;;
2022/04/09 07:02:21;;;;;;;;;;;;;;;13.72;59.94;97931.00;4408796;32;20004;-91
2022/04/09 07:14:25;;;;;;;;;;;;;;;14.08;59.96;97932.62;4393500;32;20032;-93
2022/04/09 07:17:00;;;;;;;;;;;;;;;;;;;;;
2022/04/09 07:19:25;;;;;;;;;;;;;;;13.63;59.93;98151.25;4396275;32;36013;-90
2022/04/09 07:22:12;;;;;;;;;;;;;;;12.93;59.89;98129.09;4440431;32;19984;-94
2022/04/09 07:25:00;;;;;;;;;;;;;;;12.75;59.89;98134.59;4458363;32;19993;-94
2022/04/09 07:27:42;;;;;;;;;;;;;;;12.70;59.88;98144.50;4447936;32;19987;-94
2022/04/09 07:32:42;;;;;;;;;;;;;;;12.47;59.87;98147.78;4440485;32;20709;-90
2022/04/09 07:35:15;;;;;;;;;;;;;;;12.39;59.87;98137.88;4425930;32;19996;-90
2022/04/09 07:37:40;;;;;;;;;;;;;;;12.33;59.86;98138.28;4444349;32;19968;-91
2022/04/09 07:40:06;;;;;;;;;;;;;;;12.35;59.86;98132.97;4440237;32;19977;-92
2022/04/09 07:42:31;;;;;;;;;;;;;;;12.54;59.87;98136.88;4420411;32;20258;-94
2022/04/09 07:45:00;;;;;;;;;;;;;;;12.51;59.87;98121.41;4430089;32;20015;-95
2022/04/09 07:47:53;;;;;;;;;;;;;;;12.50;59.88;98124.94;4429472;32;20022;-95
2022/04/09 07:50:21;;;;;;;;;;;;;;;12.56;59.87;98115.91;4408361;32;19963;-92
2022/04/09 07:52:47;;;;;;;;;;;;;;;12.59;59.88;98124.34;4437046;32;20003;-91
2022/04/09 07:55:15;;;;;;;;;;;;;;;12.68;59.88;98114.22;4442111;32;19997;-92
2022/04/09 07:57:40;;;;;;;;;;;;;;;12.88;59.90;98109.34;4443541;32;19999;-89
2022/04/09 08:00:12;;;;;;;;;;;;;;;13.03;59.91;98096.22;4457773;32;20354;-93
2022/04/09 08:02:37;;;;;;;;;;;;;;;13.25;59.91;98100.81;4444969;32;20050;-93
2022/04/09 08:05:13;;;;;;;;;;;;;;;13.39;59.92;98101.53;4445416;32;20347;-93
2022/04/09 08:07:43;;;;;;;;;;;;;;;13.51;59.93;98107.69;4445628;32;19969;-91
2022/04/09 08:10:08;;;;;;;;;;;;;;;13.47;59.92;98101.81;4440167;32;19980;-90
2022/04/09 08:12:34;;;;;;;;;;;;;;;13.68;59.93;98109.09;4457440;32;20499;-90
2022/04/09 08:14:59;;;;;;;;;;;;;;;13.73;59.94;98104.41;4456464;32;19973;-91
2022/04/09 08:17:38;;;;;;;;;;;;;;;13.77;59.94;98096.22;4447070;32;19989;-96
2022/04/09 08:20:04;;;;;;;;;;;;;;;13.91;59.95;98105.69;4432728;32;20033;-96
2022/04/09 08:22:29;;;;;;;;;;;;;;;14.07;59.96;98111.50;4444927;32;20019;-96
2022/04/09 08:24:56;;;;;;;;;;;;;;;14.06;59.95;98109.00;4432474;32;19991;-96
2022/04/09 08:27:22;;;;;;;;;;;;;;;14.17;59.96;98114.25;4445255;32;20025;-96
2022/04/09 08:29:47;;;;;;;;;;;;;;;14.29;59.97;98121.25;4432817;32;19989;-95
2022/04/09 08:32:13;;;;;;;;;;;;;;;14.33;59.98;98119.22;4431698;32;19989;-95
2022/04/09 08:34:39;;;;;;;;;;;;;;;14.17;59.96;98113.44;4431647;32;19991;-96
2022/04/09 08:37:06;;;;;;;;;;;;;;;14.21;59.97;98110.50;4444172;32;19977;-96
2022/04/09 08:39:51;;;;;;;;;;;;;;;14.39;59.98;98121.38;4444758;32;19966;-94
2022/04/09 08:42:16;;;;;;;;;;;;;;;14.20;59.97;98110.63;4444436;32;20001;-96
2022/04/09 08:44:41;;;;;;;;;;;;;;;14.12;59.96;98117.22;4444700;32;19973;-94
2022/04/09 08:47:11;;;;;;;;;;;;;;;14.12;59.96;98117.22;4427892;32;20045;-93
2022/04/09 08:49:37;;;;;;;;;;;;;;;14.12;59.96;98122.44;4416581;32;20000;-93
2022/04/09 08:52:05;;;;;;;;;;;;;;;13.86;59.94;98125.28;4416520;32;20016;-94
2022/04/09 08:54:30;;;;;;;;;;;;;;;13.87;59.94;98137.41;4440858;32;20470;-94
2022/04/09 08:56:56;;;;;;;;;;;;;;;13.76;59.94;98152.09;4427581;32;19990;-93
2022/04/09 08:59:21;;;;;;;;;;;;;;;13.83;59.95;98137.62;4414480;32;19997;-93
2022/04/09 09:01:47;;;;;;;;;;;;;;;13.78;59.94;98149.37;4414596;32;20025;-93
2022/04/09 09:04:12;;;;;;;;;;;;;;;13.70;59.93;98159.50;4427788;32;19978;-94
2022/04/09 09:06:40;;;;;;;;;;;;;;;13.85;59.95;98165.44;4426897;32;19973;-93
2022/04/09 09:09:05;;;;;;;;;;;;;;;13.91;59.95;98172.84;4427596;32;20007;-93
2022/04/09 09:11:43;;;;;;;;;;;;;;;13.86;59.94;98173.19;4429753;32;19985;-93
2022/04/09 09:14:08;;;;;;;;;;;;;;;13.65;59.94;98174.69;4427865;32;19982;-95
2022/04/09 09:16:33;;;;;;;;;;;;;;;13.57;59.92;98171.78;4427592;32;20025;-93
2022/04/09 09:19:05;;;;;;;;;;;;;;;13.15;59.90;98187.63;4427327;32;21381;-94
2022/04/09 09:21:31;;;;;;;;;;;;;;;12.94;59.89;98167.31;4415394;32;20001;-94
2022/04/09 09:24:15;;;;;;;;;;;;;;;12.58;59.88;98182.72;4428771;32;20004;-93
2022/04/09 09:26:40;;;;;;;;;;;;;;;12.23;59.86;98186.75;4428539;32;19986;-94
2022/04/09 09:29:06;;;;;;;;;;;;;;;12.35;59.86;98185.97;4414646;32;19997;-92
2022/04/09 09:31:38;;;;;;;;;;;;;;;12.22;59.86;98209.37;4430661;32;19981;-93
2022/04/09 09:34:13;;;;;;;;;;;;;;;12.22;59.86;98221.59;4426994;32;19973;-94
2022/04/09 09:36:40;;;;;;;;;;;;;;;12.25;59.86;98229.22;4414789;32;20004;-93
2022/04/09 09:39:06;;;;;;;;;;;;;;;12.46;59.87;98250.50;4415102;32;20577;-93
2022/04/09 09:41:31;;;;;;;;;;;;;;;12.37;59.87;98271.97;4414891;32;19993;-93
2022/04/09 09:44:02;;;;;;;;;;;;;;;12.34;59.86;98278.22;4427693;32;23960;-92
2022/04/09 09:46:27;;;;;;;;;;;;;;;12.33;59.86;98307.88;4415467;32;19973;-94
2022/04/09 09:48:52;;;;;;;;;;;;;;;11.77;59.83;98322.53;4414901;32;20007;-94
2022/04/09 09:51:21;;;;;;;;;;;;;;;11.52;59.83;98338.78;4416066;32;20240;-94
2022/04/09 09:53:47;;;;;;;;;;;;;;;11.04;59.79;98332.00;4415224;32;20001;-94
2022/04/09 09:56:12;;;;;;;;;;;;;;;10.83;59.78;98346.22;4427966;32;20029;-93
2022/04/09 09:58:38;;;;;;;;;;;;;;;10.65;59.77;98348.09;4414764;32;19989;-93
2022/04/09 10:01:03;;;;;;;;;;;;;;;10.70;59.78;98359.94;4414713;32;20003;-94
2022/04/09 10:03:28;;;;;;;;;;;;;;;10.65;59.77;98364.53;4414415;32;19973;-95
2022/04/09 10:05:53;;;;;;;;;;;;;;;10.48;59.76;98375.00;4414509;32;19981;-93
2022/04/09 10:08:19;;;;;;;;;;;;;;;10.28;59.75;98381.28;4414552;32;19981;-93
2022/04/09 10:10:48;;;;;;;;;;;;;;;10.44;59.76;98376.94;4416473;32;19989;-94
2022/04/09 10:13:24;;;;;;;;;;;;;;;10.14;59.74;98391.50;4415226;32;19964;-94
2022/04/09 10:15:50;;;;;;;;;;;;;;;10.15;59.74;98406.19;4415239;32;20008;-94
2022/04/09 10:18:18;;;;;;;;;;;;;;;10.12;59.74;98391.59;4414383;32;19993;-95
2022/04/09 10:20:44;;;;;;;;;;;;;;;10.19;59.75;98399.94;4414993;32;19979;-94
2022/04/09 10:23:09;;;;;;;;;;;;;;;10.30;59.75;98405.44;4414924;32;19973;-94
2022/04/09 10:25:39;;;;;;;;;;;;;;;9.64;59.72;98410.50;4415184;32;19986;-94
2022/04/09 10:28:04;;;;;;;;;;;;;;;9.71;59.71;98398.91;4428144;32;19999;-93
2022/04/09 10:30:37;;;;;;;;;;;;;;;9.86;59.72;98407.69;4415423;32;20021;-95
2022/04/09 10:33:02;;;;;;;;;;;;;;;9.92;59.73;98403.91;4416205;32;20041;-93
2022/04/09 10:35:40;;;;;;;;;;;;;;;9.78;59.72;98399.44;4416656;32;19982;-94
2022/04/09 10:38:14;;;;;;;;;;;;;;;9.76;59.72;98396.91;4430179;32;19989;-91
2022/04/09 10:40:43;;;;;;;;;;;;;;;9.69;59.72;98405.06;4431369;32;20005;-92
2022/04/09 10:43:08;;;;;;;;;;;;;;;9.66;59.72;98434.66;4450808;32;19950;-93
2022/04/09 10:45:53;;;;;;;;;;;;;;;9.78;59.72;98428.84;4421801;32;20322;-89
2022/04/09 10:48:26;;;;;;;;;;;;;;;9.61;59.71;98438.41;4426595;32;19993;-92
2022/04/09 10:50:58;;;;;;;;;;;;;;;9.51;59.71;98445.81;4426646;32;20053;-91
2022/04/09 10:53:27;;;;;;;;;;;;;;;9.75;59.72;98460.19;4426528;32;20767;-92
2022/04/09 10:56:11;;;;;;;;;;;;;;;9.38;59.70;98458.53;4414004;32;19991;-90
2022/04/09 10:58:56;;;;;;;;;;;;;;;9.20;59.69;98462.81;4425954;32;20069;-91
2022/04/09 11:01:40;;;;;;;;;;;;;;;9.10;59.68;98466.78;4426197;32;20050;-92
2022/04/09 11:04:24;;;;;;;;;;;;;;;9.09;59.68;98472.88;4440332;32;19969;-92
2022/04/09 11:06:59;;;;;;;;;;;;;;;9.18;59.68;98469.84;4426478;32;20351;-90
2022/04/09 11:09:25;;;;;;;;;;;;;;;9.11;59.68;98478.84;4427066;32;20055;-93
2022/04/09 11:11:59;;;;;;;;;;;;;;;9.25;59.69;98469.59;4413803;32;20366;-93
2022/04/09 11:14:25;;;;;;;;;;;;;;;9.30;59.70;98485.78;4426545;32;19996;-91
2022/04/09 11:16:50;;;;;;;;;;;;;;;9.37;59.71;98500.16;4426481;32;19993;-92
2022/04/09 11:19:15;;;;;;;;;;;;;;;9.29;59.70;98521.28;4426078;32;19985;-91
2022/04/09 11:21:40;;;;;;;;;;;;;;;9.16;59.69;98530.53;4425897;32;19993;-91
2022/04/09 11:24:06;;;;;;;;;;;;;;;9.38;59.70;98520.84;4425792;32;20015;-92
2022/04/09 11:26:31;;;;;;;;;;;;;;;9.66;59.72;98528.19;4425753;32;20010;-91
2022/04/09 11:28:57;;;;;;;;;;;;;;;9.57;59.71;98527.78;4425308;32;20384;-92
2022/04/09 11:31:22;;;;;;;;;;;;;;;9.60;59.72;98558.81;4411612;32;20036;-89
2022/04/09 11:33:57;;;;;;;;;;;;;;;9.78;59.72;98591.75;4412553;32;20025;-91
2022/04/09 11:36:22;;;;;;;;;;;;;;;9.75;59.72;98568.50;4439414;32;20009;-89
2022/04/09 11:38:48;;;;;;;;;;;;;;;9.38;59.70;98559.81;4412582;32;20318;-91
2022/04/09 11:41:20;;;;;;;;;;;;;;;9.55;59.71;98551.25;4412380;32;19997;-91
2022/04/09 11:43:46;;;;;;;;;;;;;;;9.52;59.71;98561.78;4412780;32;19985;-90
2022/04/09 11:46:12;;;;;;;;;;;;;;;9.81;59.73;98547.41;4411902;32;19997;-90
2022/04/09 11:48:37;;;;;;;;;;;;;;;9.92;59.73;98557.28;4412520;32;20067;-90
2022/04/09 11:51:02;;;;;;;;;;;;;;;9.88;59.73;98587.78;4412175;32;20361;-92
2022/04/09 11:53:27;;;;;;;;;;;;;;;9.83;59.72;98594.97;4425267;32;20000;-93
2022/04/09 11:55:59;;;;;;;;;;;;;;;9.82;59.73;98611.47;4425305;32;19974;-91
2022/04/09 11:58:31;;;;;;;;;;;;;;;9.75;59.72;98616.13;4425103;32;20089;-90
2022/04/09 12:00:56;;;;;;;;;;;;;;;9.79;59.73;98598.63;4424756;32;20362;-90
2022/04/09 12:03:21;;;;;;;;;;;;;;;9.70;59.71;98605.09;4412100;32;19997;-91
2022/04/09 12:05:47;;;;;;;;;;;;;;;9.61;59.71;98641.88;4424764;32;20040;-90
2022/04/09 12:08:13;;;;;;;;;;;;;;;9.53;59.71;98631.00;4424977;32;19993;-89
2022/04/09 12:10:55;;;;;;;;;;;;;;;9.14;59.69;98625.84;4412061;32;20015;-89
2022/04/09 12:13:26;;;;;;;;;;;;;;;9.31;59.69;98636.31;4424763;32;20034;-91
2022/04/09 12:15:51;;;;;;;;;;;;;;;9.48;59.70;98641.63;4411646;32;19969;-89
2022/04/09 12:18:27;;;;;;;;;;;;;;;9.28;59.70;98638.22;4411782;32;20051;-92
2022/04/09 12:20:52;;;;;;;;;;;;;;;9.44;59.70;98634.00;4424199;32;20005;-92
2022/04/09 12:23:26;;;;;;;;;;;;;;;9.27;59.70;98652.94;4438664;32;20319;-89
2022/04/09 12:25:52;;;;;;;;;;;;;;;9.43;59.70;98698.09;4424100;32;19980;-89
2022/04/09 12:28:24;;;;;;;;;;;;;;;9.45;59.70;98666.84;4406293;32;20052;-88
2022/04/09 12:30:53;;;;;;;;;;;;;;;9.56;59.71;98661.19;4423290;32;20056;-88
2022/04/09 12:33:19;;;;;;;;;;;;;;;9.49;59.71;98666.66;4423123;32;20001;-89
2022/04/09 12:35:44;;;;;;;;;;;;;;;9.49;59.72;98671.88;4423240;32;19989;-87
2022/04/09 12:38:09;;;;;;;;;;;;;;;9.32;59.70;98657.94;4395403;32;891219;-88
2022/04/09 12:40:35;;;;;;;;;;;;;;;9.19;59.70;98645.47;4423293;32;20005;-88
2022/04/09 12:43:00;;;;;;;;;;;;;;;9.20;59.69;98633.34;4412699;32;20290;-89
2022/04/09 12:45:27;;;;;;;;;;;;;;;9.08;59.69;98633.91;4426356;32;19989;-88
2022/04/09 12:47:53;;;;;;;;;;;;;;;9.19;59.70;98642.88;4426688;32;20077;-91
2022/04/09 12:50:24;;;;;;;;;;;;;;;9.08;59.69;98631.31;4426181;32;20480;-91
2022/04/09 12:52:49;;;;;;;;;;;;;;;9.31;59.70;98631.13;4426828;32;19988;-90
2022/04/09 12:55:15;;;;;;;;;;;;;;;9.48;59.70;98618.22;4413737;32;19986;-91
2022/04/09 12:57:40;;;;;;;;;;;;;;;9.74;59.72;98611.84;4413419;32;20034;-92
2022/04/09 13:00:06;;;;;;;;;;;;;;;9.87;59.73;98632.88;4413667;32;20043;-89
2022/04/09 13:02:32;;;;;;;;;;;;;;;9.54;59.71;98636.13;4413554;32;20333;-90
2022/04/09 13:04:58;;;;;;;;;;;;;;;9.54;59.71;98637.88;4423320;32;19981;-89
2022/04/09 13:07:23;;;;;;;;;;;;;;;9.40;59.70;98645.44;4424697;32;20329;-89
2022/04/09 13:09:48;;;;;;;;;;;;;;;9.48;59.70;98644.22;4425380;32;19997;-88
2022/04/09 13:12:13;;;;;;;;;;;;;;;9.50;59.71;98650.19;4424795;32;19996;-89
2022/04/09 13:14:38;;;;;;;;;;;;;;;9.59;59.71;98651.50;4425101;32;20037;-89
2022/04/09 13:17:04;;;;;;;;;;;;;;;9.54;59.71;98664.72;4425635;32;20033;-90
2022/04/09 13:19:31;;;;;;;;;;;;;;;9.67;59.72;98677.97;4425440;32;19997;-89
2022/04/09 13:21:56;;;;;;;;;;;;;;;9.66;59.72;98693.62;4439776;32;20031;-92
2022/04/09 13:24:22;;;;;;;;;;;;;;;9.70;59.71;98683.06;4425929;32;19981;-90
2022/04/09 13:26:47;;;;;;;;;;;;;;;9.52;59.71;98702.91;4425202;32;20025;-88
2022/04/09 13:29:12;;;;;;;;;;;;;;;9.46;59.70;98697.13;4412700;32;20004;-89
2022/04/09 13:31:37;;;;;;;;;;;;;;;9.64;59.71;98700.66;4412004;32;19997;-85
2022/04/09 13:34:03;;;;;;;;;;;;;;;9.52;59.71;98715.03;4438913;32;20589;-89
2022/04/09 13:36:28;;;;;;;;;;;;;;;9.65;59.72;98697.13;4425364;32;20240;-88
2022/04/09 13:38:53;;;;;;;;;;;;;;;9.74;59.72;98704.53;4425686;32;20382;-91
2022/04/09 13:41:25;;;;;;;;;;;;;;;9.73;59.73;98705.47;4412944;32;20306;-93
2022/04/09 13:43:50;;;;;;;;;;;;;;;9.67;59.72;98723.91;4426341;32;20041;-89
2022/04/09 13:46:16;;;;;;;;;;;;;;;9.88;59.73;98722.94;4425371;32;19985;-88
2022/04/09 13:48:41;;;;;;;;;;;;;;;10.03;59.74;98724.84;4412204;32;21459;-90
2022/04/09 13:51:06;;;;;;;;;;;;;;;10.08;59.73;98724.62;4424764;32;20258;-92
2022/04/09 13:53:31;;;;;;;;;;;;;;;10.28;59.75;98719.38;4424882;32;19986;-88
2022/04/09 13:55:57;;;;;;;;;;;;;;;10.20;59.75;98705.03;4424730;32;20029;-88
2022/04/09 13:58:22;;;;;;;;;;;;;;;10.37;59.76;98710.28;4438541;32;20099;-89
2022/04/09 14:00:50;;;;;;;;;;;;;;;10.47;59.77;98701.12;4413333;32;20566;-92
2022/04/09 14:03:15;;;;;;;;;;;;;;;10.31;59.75;98693.22;4426406;32;19969;-92
2022/04/09 14:05:41;;;;;;;;;;;;;;;10.44;59.76;98688.28;4426946;32;20003;-90
2022/04/09 14:08:06;;;;;;;;;;;;;;;10.58;59.77;98679.78;4426087;32;20036;-92
2022/04/09 14:10:31;;;;;;;;;;;;;;;10.70;59.78;98664.41;4425481;32;20396;-92
2022/04/09 14:12:57;;;;;;;;;;;;;;;10.74;59.77;98671.16;4426046;32;20047;-92
2022/04/09 14:15:22;;;;;;;;;;;;;;;10.44;59.76;98652.69;4425500;32;20005;-93
2022/04/09 14:17:47;;;;;;;;;;;;;;;10.56;59.77;98653.00;4426287;32;20280;-91
2022/04/09 14:20:14;;;;;;;;;;;;;;;10.67;59.77;98635.09;4427112;32;19970;-92
2022/04/09 14:22:41;;;;;;;;;;;;;;;10.66;59.77;98651.66;4435634;32;19958;-94
2022/04/09 14:25:09;;;;;;;;;;;;;;;10.40;59.76;98658.09;4436984;32;19981;-95
2022/04/09 14:27:35;;;;;;;;;;;;;;;10.26;59.75;98681.34;4420954;32;19989;-92
2022/04/09 14:30:32;;;;;;;;;;;;;;;10.22;59.75;98672.00;4410947;32;19996;-93
2022/04/09 14:33:05;;;;;;;;;;;;;;;10.31;59.75;98692.38;4393329;32;20028;-92
2022/04/09 14:35:30;;;;;;;;;;;;;;;10.04;59.74;98699.69;4414648;32;20251;-93
2022/04/09 14:37:55;;;;;;;;;;;;;;;10.16;59.75;98692.13;4413428;32;20027;-93
2022/04/09 14:40:21;;;;;;;;;;;;;;;9.99;59.74;98696.47;4413280;32;20288;-92
2022/04/09 14:42:47;;;;;;;;;;;;;;;9.92;59.73;98718.44;4426385;32;20331;-93
2022/04/09 14:45:15;;;;;;;;;;;;;;;9.87;59.73;98720.41;4412199;32;20012;-87
2022/04/09 14:47:40;;;;;;;;;;;;;;;9.99;59.73;98728.50;4424831;32;20015;-87
2022/04/09 14:50:06;;;;;;;;;;;;;;;9.83;59.72;98699.75;4425112;32;20323;-86
2022/04/09 14:52:31;;;;;;;;;;;;;;;9.95;59.73;98736.50;4424967;32;19995;-87
2022/04/09 14:54:56;;;;;;;;;;;;;;;9.94;59.74;98746.06;4425486;32;20023;-89
2022/04/09 14:57:23;;;;;;;;;;;;;;;9.91;59.73;98732.34;4425909;32;19996;-88